M I D A S
Marine Information and Data Acquisition System
Tripno 1911 of the Zeeleeuw from 2010-06-30 05:02:48 to 2010-06-30 15:26:22
Back to CruiseResearch ActivitiesStationsMapUnderway DataData graphs

EquipmentUnitsComment
TimeDGPSUTC
LatitudeDGPSDM.mWGS84
LongitudeDGPSDM.mWGS84
HeadingGyrodeg 
SOGDGPSknotsSpeed over ground
COGDGPSdegCourse over ground
DepthEcho soundermeters200 kHz
Missing or incorrect values are displayed as -999
Navigation data collected by the RV Zeeleeuw from 2010-06-30 04:56:18 to 2010-06-30 15:37:12
Time Latitude Longitude Heading SOG COG Depth
2010-06-30 04:57:28 51°13.67 2°55.914 111.1 2.8 291 -999
2010-06-30 04:58:28 51°13.693 2°55.826 113.6 4 293 -999
2010-06-30 04:59:27 51°13.716 2°55.756 100.6 0.7 44 -999
2010-06-30 05:00:28 51°13.71 2°55.738 56 2.6 238 -999
2010-06-30 05:01:27 51°13.721 2°55.724 3.3 3.1 354 -999
2010-06-30 05:02:26 51°13.785 2°55.668 330.3 5.9 329 13.2
2010-06-30 05:03:25 51°13.882 2°55.591 336.6 7.1 335 11.9
2010-06-30 05:04:24 51°13.991 2°55.51 335.4 7.4 334 12.4
2010-06-30 05:05:24 51°14.103 2°55.425 336.8 7.5 335 12.1
2010-06-30 05:06:25 51°14.235 2°55.324 336.1 9.2 335 12.3
2010-06-30 05:07:24 51°14.373 2°55.213 332 9.5 331 12.3
2010-06-30 05:08:24 51°14.532 2°55.075 332.4 12.8 331 11.4
2010-06-30 05:09:24 51°14.718 2°54.88 323.8 13.5 324 12.5
2010-06-30 05:10:24 51°14.897 2°54.663 319.9 13.5 320 12.1
2010-06-30 05:11:24 51°15.074 2°54.446 325.3 13.5 326 10.9
2010-06-30 05:12:24 51°15.26 2°54.241 324.7 13.6 326 10.9
2010-06-30 05:13:24 51°15.446 2°54.038 325 13.6 326 11.5
2010-06-30 05:14:24 51°15.626 2°53.822 319.4 13.5 319 12.1
2010-06-30 05:15:24 51°15.795 2°53.586 318.2 13.6 319 12.5
2010-06-30 05:16:24 51°15.974 2°53.367 326.7 13.7 333 12.7
2010-06-30 05:17:24 51°16.192 2°53.252 343.7 14 345 12.8
2010-06-30 05:18:24 51°16.416 2°53.156 342.6 13.9 344 13
2010-06-30 05:19:24 51°16.639 2°53.059 342.4 13.9 345 12.5
2010-06-30 05:20:24 51°16.859 2°52.953 342.2 13.6 343 10
2010-06-30 05:21:24 51°17.075 2°52.828 337 14 339 10.9
2010-06-30 05:22:24 51°17.282 2°52.669 329.5 13.7 330 11
2010-06-30 05:23:24 51°17.477 2°52.479 326.6 13.7 327 11.5
2010-06-30 05:24:24 51°17.667 2°52.283 326 13.6 325 11.4
2010-06-30 05:25:24 51°17.854 2°52.076 324.6 13.7 326 12.1
2010-06-30 05:26:24 51°18.041 2°51.871 325.4 13.7 326 11.7
2010-06-30 05:27:24 51°18.228 2°51.667 325.1 13.6 326 12.4
2010-06-30 05:28:24 51°18.416 2°51.463 325.5 13.6 325 13.8
2010-06-30 05:29:24 51°18.604 2°51.26 325 13.6 326 14.9
2010-06-30 05:30:24 51°18.792 2°51.059 325.2 13.6 325 15.5
2010-06-30 05:31:24 51°18.977 2°50.853 325.1 13.6 326 15.8
2010-06-30 05:32:24 51°19.164 2°50.647 324.9 13.6 326 15.3
2010-06-30 05:33:24 51°19.349 2°50.44 325.3 13.6 324 13.6
2010-06-30 05:34:24 51°19.534 2°50.232 325.1 13.7 325 13
2010-06-30 05:35:24 51°19.721 2°50.024 325.1 13.7 325 15.6
2010-06-30 05:36:24 51°19.907 2°49.817 325.3 13.6 325 17
2010-06-30 05:37:24 51°20.097 2°49.614 325.3 13.8 325 19.8
2010-06-30 05:38:24 51°20.286 2°49.412 325.4 13.6 326 22.5
2010-06-30 05:39:24 51°20.473 2°49.21 325.3 13.5 327 23.4
2010-06-30 05:40:24 51°20.66 2°49.007 325.2 13.5 326 23.5
2010-06-30 05:41:24 51°20.847 2°48.805 324.9 13.6 326 22.7
2010-06-30 05:42:24 51°21.033 2°48.602 325.7 13.6 326 21.5
2010-06-30 05:43:24 51°21.224 2°48.411 329 13.7 329 21.5
2010-06-30 05:44:24 51°21.417 2°48.22 328.4 13.6 328 22.9
2010-06-30 05:45:24 51°21.609 2°48.029 328.2 13.5 328 23.9
2010-06-30 05:46:24 51°21.8 2°47.836 328.7 13.7 327 24.5
2010-06-30 05:47:24 51°21.996 2°47.646 328.3 13.8 329 24.6
2010-06-30 05:48:24 51°22.192 2°47.458 328.3 13.7 329 23
2010-06-30 05:49:24 51°22.389 2°47.272 328.2 13.8 329 19.4
2010-06-30 05:50:24 51°22.588 2°47.094 334.7 13.7 339 16.1
2010-06-30 05:51:24 51°22.774 2°46.894 319.2 13.6 318 18.8
2010-06-30 05:52:24 51°22.93 2°46.635 312.9 13.5 313 22.8
2010-06-30 05:53:24 51°23.085 2°46.372 313.1 13.6 313 24.4
2010-06-30 05:54:24 51°23.232 2°46.099 309.6 13.5 310 25.6
2010-06-30 05:55:24 51°23.376 2°45.824 309.7 13.6 310 27
2010-06-30 05:56:24 51°23.522 2°45.548 309.7 13.6 310 27.6
2010-06-30 05:57:24 51°23.668 2°45.277 310 13.4 310 27.4
2010-06-30 05:58:24 51°23.814 2°45.009 308.6 13.3 309 26.8
2010-06-30 05:59:24 51°23.943 2°44.721 304.7 13.3 306 27.4
2010-06-30 06:00:24 51°24.069 2°44.43 304.4 13.3 306 27.6
2010-06-30 06:01:24 51°24.198 2°44.141 304.8 13.3 305 25.8
2010-06-30 06:02:24 51°24.343 2°43.871 316.3 13.4 318 26.7
2010-06-30 06:03:24 51°24.522 2°43.655 326.2 13.5 327 20.3
2010-06-30 06:04:24 51°24.707 2°43.45 322.5 13.5 323 22.9
2010-06-30 06:05:24 51°24.887 2°43.234 321.6 13.5 323 23.1
2010-06-30 06:06:24 51°25.066 2°43.015 321.7 13.6 323 19.8
2010-06-30 06:07:24 51°25.245 2°42.793 321.5 13.6 322 25
2010-06-30 06:08:23 51°25.421 2°42.576 321.1 13.6 321 25.5
2010-06-30 06:09:24 51°25.604 2°42.351 321 13.6 321 25.2
2010-06-30 06:10:24 51°25.788 2°42.138 323.4 13.6 323 28
2010-06-30 06:11:24 51°25.97 2°41.921 323.3 13.7 322 27.4
2010-06-30 06:12:24 51°26.153 2°41.701 323.1 13.7 323 28.9
2010-06-30 06:13:24 51°26.335 2°41.482 323.5 13.7 323 29
2010-06-30 06:14:24 51°26.518 2°41.264 323.5 13.7 323 29.9
2010-06-30 06:15:24 51°26.701 2°41.049 323.1 13.6 323 31.5
2010-06-30 06:16:24 51°26.885 2°40.835 323.3 13.7 324 31.8
2010-06-30 06:17:24 51°27.068 2°40.622 323.4 13.6 323 31.9
2010-06-30 06:18:24 51°27.252 2°40.41 323.7 13.6 323 32.3
2010-06-30 06:19:24 51°27.436 2°40.196 323.3 13.7 323 32.8
2010-06-30 06:20:24 51°27.619 2°39.981 323.8 13.7 324 33.6
2010-06-30 06:21:24 51°27.804 2°39.765 323.6 13.8 324 33.8
2010-06-30 06:22:24 51°27.989 2°39.551 323.4 13.7 324 33.2
2010-06-30 06:23:24 51°28.176 2°39.335 324 13.9 325 33.6
2010-06-30 06:24:24 51°28.362 2°39.119 323.5 13.9 324 37.2
2010-06-30 06:25:24 51°28.548 2°38.901 322 13.7 321 39.6
2010-06-30 06:26:23 51°28.727 2°38.685 323.1 13.7 324 39.1
2010-06-30 06:27:24 51°28.914 2°38.466 323.9 13.7 326 35.1
2010-06-30 06:28:24 51°29.098 2°38.25 322.6 13.6 322 35.6
2010-06-30 06:29:24 51°29.28 2°38.037 323.1 13.6 324 36.4
2010-06-30 06:30:24 51°29.464 2°37.824 323.8 13.6 323 37.4
2010-06-30 06:31:24 51°29.647 2°37.609 322.8 13.6 326 35.2
2010-06-30 06:32:24 51°29.828 2°37.392 323.2 13.5 322 26.1
2010-06-30 06:33:24 51°30.01 2°37.174 323.5 13.7 324 21.5
2010-06-30 06:34:24 51°30.204 2°36.98 335.9 13.9 337 23.9
2010-06-30 06:35:24 51°30.423 2°36.862 343.9 14 342 25.2
2010-06-30 06:36:24 51°30.646 2°36.753 344 13.9 344 27.9
2010-06-30 06:37:24 51°30.878 2°36.693 353.1 14.2 353 31.5
2010-06-30 06:38:24 51°31.112 2°36.649 356.5 14.2 356 33.4
2010-06-30 06:39:24 51°31.348 2°36.665 4.4 14.2 2 35.2
2010-06-30 06:40:24 51°31.583 2°36.69 4.5 14.1 1 36.6
2010-06-30 06:41:24 51°31.814 2°36.715 5.3 13.7 4 37.3
2010-06-30 06:42:23 51°32.041 2°36.74 5 13.9 3 38.1
2010-06-30 06:43:24 51°32.278 2°36.759 3.9 14.1 3 37.7
2010-06-30 06:44:24 51°32.51 2°36.778 4.4 14.1 7 38.1
2010-06-30 06:45:24 51°32.741 2°36.803 4.6 13.9 4 35.1
2010-06-30 06:46:24 51°32.97 2°36.832 3.9 13.8 7 39.9
2010-06-30 06:47:24 51°33.2 2°36.854 1.5 13.9 1 39.7
2010-06-30 06:48:24 51°33.432 2°36.86 0.2 13.8 1 39.8
2010-06-30 06:49:24 51°33.661 2°36.867 1.5 13.8 -999 39.2
2010-06-30 06:50:24 51°33.893 2°36.867 0.2 14 358 39.8
2010-06-30 06:51:24 51°34.124 2°36.855 358.9 13.9 358 38.8
2010-06-30 06:52:24 51°34.353 2°36.842 358.4 13.8 359 36
2010-06-30 06:53:24 51°34.582 2°36.829 359.4 13.9 358 35.3
2010-06-30 06:54:24 51°34.812 2°36.816 359.4 13.8 1 35.2
2010-06-30 06:55:24 51°35.04 2°36.795 356.1 13.7 354 34.9
2010-06-30 06:56:24 51°35.263 2°36.713 346.5 13.9 342 34.3
2010-06-30 06:57:24 51°35.487 2°36.621 347 13.8 347 34.2
2010-06-30 06:58:24 51°35.711 2°36.534 347.7 13.7 348 35
2010-06-30 06:59:24 51°35.932 2°36.44 344.3 13.7 338 36.6
2010-06-30 07:00:24 51°36.138 2°36.28 332.3 13.8 330 37.4
2010-06-30 07:01:24 51°36.338 2°36.101 331.7 13.7 330 37.5
2010-06-30 07:02:24 51°36.539 2°35.927 331.8 13.7 331 37.4
2010-06-30 07:03:24 51°36.741 2°35.756 333.4 13.8 333 37.3
2010-06-30 07:04:24 51°36.941 2°35.577 331.1 13.6 328 36.5
2010-06-30 07:05:24 51°37.137 2°35.395 330.2 13.7 329 36.1
2010-06-30 07:06:24 51°37.333 2°35.211 330.6 13.6 331 33.6
2010-06-30 07:07:24 51°37.528 2°35.026 330.9 13.6 329 29.3
2010-06-30 07:08:24 51°37.724 2°34.845 332.2 13.6 332 23.5
2010-06-30 07:09:24 51°37.92 2°34.659 332.1 13.8 332 15.1
2010-06-30 07:10:24 51°38.102 2°34.436 317.7 13.7 315 25.6
2010-06-30 07:11:23 51°38.238 2°34.151 306.3 13.7 308 30.6
2010-06-30 07:12:24 51°38.357 2°33.834 300.2 13.6 300 36.3
2010-06-30 07:13:24 51°38.47 2°33.52 300.9 13.6 301 40.5
2010-06-30 07:14:24 51°38.588 2°33.209 301.6 13.7 300 41.8
2010-06-30 07:15:24 51°38.7 2°32.917 301 10.3 303 41.5
2010-06-30 07:16:24 51°38.769 2°32.748 299.2 5.9 304 41
2010-06-30 07:17:24 51°38.811 2°32.645 298.6 4.1 306 40.9
2010-06-30 07:18:24 51°38.855 2°32.55 303.5 4.5 308 40.5
2010-06-30 07:19:24 51°38.902 2°32.452 304.3 4.6 307 39.8
2010-06-30 07:20:23 51°38.936 2°32.372 296.9 3.3 304 40.3
2010-06-30 07:21:24 51°38.967 2°32.312 307.9 2.5 313 40.3
2010-06-30 07:22:24 51°38.99 2°32.275 308.7 1.6 317 26.6
2010-06-30 07:23:24 51°39.007 2°32.252 311.7 1.2 323 40.1
2010-06-30 07:24:24 51°39.021 2°32.238 315 0.9 335 40.7
2010-06-30 07:25:23 51°39.032 2°32.232 315.1 0.4 4 39.9
2010-06-30 07:26:27 51°39.021 2°32.252 338.7 2.1 156 -999
2010-06-30 07:27:27 51°38.998 2°32.259 0.5 0.6 184 26.8
2010-06-30 07:28:26 51°39 2°32.261 7.3 0.2 343 27.6
2010-06-30 07:29:25 51°39.003 2°32.26 3.8 0.3 353 27.1
2010-06-30 07:30:25 51°39.009 2°32.259 358.7 0.4 1 31.7
2010-06-30 07:31:23 51°39.016 2°32.258 353.8 0.5 354 27.1
2010-06-30 07:32:24 51°39.02 2°32.259 349.8 0.3 139 40.7
2010-06-30 07:33:24 51°39.009 2°32.263 3.5 0.7 187 33.6
2010-06-30 07:34:24 51°39.001 2°32.261 12.8 0.3 204 27.6
2010-06-30 07:35:24 51°39.009 2°32.262 16.8 0.5 2 29.5
2010-06-30 07:36:24 51°39.016 2°32.262 5.6 0.4 358 27.4
2010-06-30 07:37:24 51°39.018 2°32.263 355.1 0.1 139 36.1
2010-06-30 07:38:24 51°39.017 2°32.265 359.4 0.2 170 29.2
2010-06-30 07:39:24 51°39.01 2°32.265 8.4 0.3 180 31.4
2010-06-30 07:40:23 51°39.012 2°32.267 16.1 0.2 32 30.2
2010-06-30 07:41:24 51°39.01 2°32.268 13.4 0.3 171 30.8
2010-06-30 07:42:24 51°39.004 2°32.268 17.3 0.6 187 25.5
2010-06-30 07:43:24 51°38.985 2°32.256 29.1 2.1 208 -999
2010-06-30 07:44:27 51°38.945 2°32.21 39.3 3.2 218 -999
2010-06-30 07:45:26 51°38.929 2°32.188 50.8 0.1 222 40.7
2010-06-30 07:46:26 51°38.934 2°32.196 51 0.8 45 40.1
2010-06-30 07:47:25 51°38.944 2°32.21 44.1 0.8 35 39.8
2010-06-30 07:48:24 51°38.955 2°32.219 32 0.7 29 40.1
2010-06-30 07:49:24 51°38.974 2°32.242 53.1 1.7 51 39.2
2010-06-30 07:50:24 51°38.987 2°32.291 82.8 1.9 82 41.1
2010-06-30 07:51:24 51°38.988 2°32.332 95 1.5 95 40.1
2010-06-30 07:52:24 51°38.992 2°32.381 67.6 2 63 39.6
2010-06-30 07:53:24 51°39.02 2°32.41 18.2 1.9 12 39.9
2010-06-30 07:54:23 51°39.042 2°32.414 1.4 1 357 40.9
2010-06-30 07:55:24 51°39.055 2°32.412 347.2 0.5 345 40.3
2010-06-30 07:56:23 51°39.059 2°32.408 337.5 0.1 342 39.7
2010-06-30 07:57:24 51°39.061 2°32.407 335 0.1 -999 39.4
2010-06-30 07:58:24 51°39.062 2°32.406 333 0.1 347 39.6
2010-06-30 07:59:24 51°39.064 2°32.405 330.8 -999 17 39.9
2010-06-30 08:00:24 51°39.065 2°32.403 329.4 0.1 58 39.7
2010-06-30 08:01:24 51°39.065 2°32.406 333.2 0.1 97 39.9
2010-06-30 08:02:24 51°39.065 2°32.409 336.8 0.1 94 40
2010-06-30 08:03:24 51°39.065 2°32.412 339.8 0.1 124 40.3
2010-06-30 08:04:24 51°39.063 2°32.414 341.9 0.2 151 40.1
2010-06-30 08:05:24 51°39.061 2°32.416 344.9 0.2 149 39.4
2010-06-30 08:06:24 51°39.059 2°32.418 347.2 0.2 162 39.2
2010-06-30 08:07:24 51°39.056 2°32.418 347.5 0.2 157 40
2010-06-30 08:08:24 51°39.054 2°32.418 347.6 0.1 169 40.3
2010-06-30 08:09:24 51°39.052 2°32.418 347.6 0.1 233 40.6
2010-06-30 08:10:24 51°39.051 2°32.415 344.9 0.1 234 40.4
2010-06-30 08:11:24 51°39.05 2°32.413 340.1 0.2 249 40.6
2010-06-30 08:12:24 51°39.049 2°32.41 336.5 0.1 253 40.7
2010-06-30 08:13:24 51°39.048 2°32.407 333 0.2 237 40.8
2010-06-30 08:14:24 51°39.046 2°32.405 332.2 0.2 207 40.7
2010-06-30 08:15:24 51°39.045 2°32.403 333.7 0.1 194 40.6
2010-06-30 08:16:23 51°39.043 2°32.402 334.7 0.1 177 40.9
2010-06-30 08:17:23 51°39.043 2°32.403 335.9 0.1 188 40.7
2010-06-30 08:18:24 51°39.041 2°32.4 336.4 0.1 226 40.6
2010-06-30 08:19:23 51°39.04 2°32.397 335.8 0.1 250 40.7
2010-06-30 08:20:24 51°39.038 2°32.395 333.7 0.1 217 40.5
2010-06-30 08:21:23 51°39.037 2°32.393 331.3 0.1 227 40.3
2010-06-30 08:22:24 51°39.036 2°32.391 329.5 0.1 230 40.1
2010-06-30 08:23:23 51°39.037 2°32.387 327.4 0.1 196 40.1
2010-06-30 08:24:24 51°39.034 2°32.385 325.6 0.1 209 40.3
2010-06-30 08:25:23 51°39.032 2°32.385 325.7 0.2 191 40.2
2010-06-30 08:26:24 51°39.03 2°32.385 327.6 0.2 173 40
2010-06-30 08:27:24 51°39.025 2°32.384 329.3 0.2 175 40.4
2010-06-30 08:28:23 51°39.021 2°32.382 329.6 0.3 183 40
2010-06-30 08:29:24 51°39.016 2°32.384 333.2 0.2 168 40.8
2010-06-30 08:30:23 51°39.012 2°32.385 337.5 0.2 166 40.5
2010-06-30 08:31:24 51°39.007 2°32.385 341.4 0.3 187 40.1
2010-06-30 08:32:23 51°39.003 2°32.385 344.2 0.3 176 40.2
2010-06-30 08:33:24 51°38.997 2°32.384 346.2 0.4 172 39.8
2010-06-30 08:34:23 51°38.991 2°32.384 349.6 0.3 184 39.7
2010-06-30 08:35:24 51°38.987 2°32.382 351.5 0.3 187 39.3
2010-06-30 08:36:23 51°38.982 2°32.382 354.1 0.3 191 39.4
2010-06-30 08:37:23 51°38.977 2°32.38 350.6 0.3 213 39.3
2010-06-30 08:38:24 51°38.973 2°32.375 344.3 0.3 234 39.6
2010-06-30 08:39:23 51°38.969 2°32.37 338.1 0.3 220 39.4
2010-06-30 08:40:24 51°38.966 2°32.364 334.2 0.2 217 39.6
2010-06-30 08:41:23 51°38.962 2°32.36 331.1 0.3 218 39.2
2010-06-30 08:42:24 51°38.958 2°32.353 326.1 0.3 220 40.3
2010-06-30 08:43:24 51°38.953 2°32.348 322.7 0.3 212 39.8
2010-06-30 08:44:24 51°38.946 2°32.343 321.5 0.4 202 40.8
2010-06-30 08:45:23 51°38.94 2°32.339 322.2 0.5 207 40.7
2010-06-30 08:46:24 51°38.933 2°32.336 326.2 0.4 193 40.7
2010-06-30 08:47:24 51°38.926 2°32.333 331.1 0.5 193 40.2
2010-06-30 08:48:24 51°38.918 2°32.33 337.1 0.5 195 40
2010-06-30 08:49:24 51°38.91 2°32.327 341.9 0.6 194 40.3
2010-06-30 08:50:24 51°38.901 2°32.322 346.8 0.5 195 40.5
2010-06-30 08:51:24 51°38.892 2°32.318 349.2 0.6 204 40.4
2010-06-30 08:52:24 51°38.883 2°32.312 349.5 0.6 201 40.5
2010-06-30 08:53:24 51°38.873 2°32.306 347.2 0.6 198 40.6
2010-06-30 08:54:23 51°38.864 2°32.298 345.1 0.6 207 39.7
2010-06-30 08:55:24 51°38.855 2°32.289 338.7 0.6 218 39.5
2010-06-30 08:56:24 51°38.846 2°32.279 332 0.7 219 39.2
2010-06-30 08:57:24 51°38.837 2°32.268 324.7 0.8 217 39.5
2010-06-30 08:58:24 51°38.828 2°32.256 315.3 0.7 215 39.5
2010-06-30 08:59:24 51°38.817 2°32.245 312.2 0.7 210 39
2010-06-30 09:00:24 51°38.806 2°32.235 313.7 0.8 204 38.5
2010-06-30 09:01:23 51°38.795 2°32.227 316.8 0.8 205 38.8
2010-06-30 09:02:24 51°38.783 2°32.219 322.1 0.9 206 38.5
2010-06-30 09:03:23 51°38.77 2°32.211 328 0.8 201 38.9
2010-06-30 09:04:23 51°38.757 2°32.202 333 0.8 207 39
2010-06-30 09:05:24 51°38.743 2°32.191 337.5 0.9 205 39.2
2010-06-30 09:06:24 51°38.729 2°32.181 338.3 0.8 208 38.8
2010-06-30 09:07:24 51°38.716 2°32.169 334.9 0.9 205 40.2
2010-06-30 09:08:24 51°38.703 2°32.158 331.1 0.9 214 40.3
2010-06-30 09:09:24 51°38.69 2°32.145 329.3 1 215 39.8
2010-06-30 09:10:23 51°38.678 2°32.133 326.5 0.8 213 39.6
2010-06-30 09:11:24 51°38.666 2°32.12 324.4 0.7 212 39.6
2010-06-30 09:12:23 51°38.654 2°32.106 324.7 0.9 216 39.6
2010-06-30 09:13:24 51°38.642 2°32.093 324.7 0.9 216 38.8
2010-06-30 09:14:24 51°38.635 2°32.073 326.2 1.1 267 39.6
2010-06-30 09:15:24 51°38.637 2°32.03 313.9 2 278 38.3
2010-06-30 09:16:24 51°38.642 2°31.972 307.7 2.1 275 38.5
2010-06-30 09:17:24 51°38.646 2°31.923 310.3 1.8 278 39
2010-06-30 09:18:24 51°38.648 2°31.875 303.6 1.8 269 39.5
2010-06-30 09:19:23 51°38.66 2°31.818 339.2 2.5 314 39.8
2010-06-30 09:20:24 51°38.696 2°31.822 33.3 2.8 28 39
2010-06-30 09:21:23 51°38.739 2°31.884 47.3 4 48 39.5
2010-06-30 09:22:24 51°38.786 2°31.956 40.6 3 40 39.2
2010-06-30 09:23:24 51°38.802 2°32.002 66.9 1.5 87 38.8
2010-06-30 09:24:24 51°38.792 2°32.035 85.8 1.3 130 39.2
2010-06-30 09:25:24 51°38.806 2°32.109 54.5 5.3 55 39.7
2010-06-30 09:26:23 51°38.917 2°32.19 30.8 8.5 26 40.1
2010-06-30 09:27:24 51°39.046 2°32.268 19.9 6.1 11 39.6
2010-06-30 09:28:23 51°39.086 2°32.311 57.5 1.3 72 38.4
2010-06-30 09:29:24 51°39.082 2°32.336 67.6 0.6 142 39.3
2010-06-30 09:30:24 51°39.073 2°32.337 56.4 0.5 185 40.9
2010-06-30 09:31:24 51°39.064 2°32.337 58.8 0.5 183 40.7
2010-06-30 09:32:23 51°39.054 2°32.331 59.9 0.7 200 40.9
2010-06-30 09:33:24 51°39.042 2°32.325 62.6 0.7 203 41.5
2010-06-30 09:34:24 51°39.031 2°32.323 70.7 0.7 186 41.1
2010-06-30 09:35:23 51°39.017 2°32.32 83.4 0.9 189 41.9
2010-06-30 09:36:24 51°39 2°32.315 94.3 1.1 195 41.6
2010-06-30 09:37:23 51°38.983 2°32.299 102.8 1.5 231 41.2
2010-06-30 09:38:24 51°38.968 2°32.26 89.7 1.2 215 36.6
2010-06-30 09:39:23 51°38.968 2°32.265 33.9 1.1 359 37.7
2010-06-30 09:40:24 51°38.995 2°32.24 0.2 1.8 322 41.2
2010-06-30 09:41:24 51°39.005 2°32.221 21.7 0.5 273 38.9
2010-06-30 09:42:23 51°39.007 2°32.226 53.2 1.1 90 39.9
2010-06-30 09:43:24 51°39.009 2°32.26 43.7 0.8 50 28.7
2010-06-30 09:44:24 51°39.014 2°32.262 41.3 0.1 96 31.7
2010-06-30 09:45:24 51°39.014 2°32.268 51.5 0.5 82 29.3
2010-06-30 09:46:23 51°39.01 2°32.275 60.9 0.7 197 36.4
2010-06-30 09:47:24 51°38.996 2°32.264 63.6 1.2 214 31
2010-06-30 09:48:24 51°38.979 2°32.242 70.1 1.3 217 39.4
2010-06-30 09:49:24 51°38.96 2°32.222 79.7 1.4 210 40.7
2010-06-30 09:50:23 51°38.942 2°32.211 81.6 1 162 40.1
2010-06-30 09:51:24 51°38.946 2°32.221 20.3 1.5 345 40.3
2010-06-30 09:52:24 51°38.995 2°32.228 29.4 3.5 27 39.8
2010-06-30 09:53:23 51°39.026 2°32.27 49.2 1.8 61 36.4
2010-06-30 09:54:24 51°39.023 2°32.287 62.5 0.7 169 38
2010-06-30 09:55:24 51°39.008 2°32.281 70.1 1.2 206 39
2010-06-30 09:56:24 51°38.987 2°32.264 79.2 1.4 210 27.2
2010-06-30 09:57:23 51°38.968 2°32.246 86.4 1.3 209 39.1
2010-06-30 09:58:24 51°38.948 2°32.233 91.6 1.4 197 40.8
2010-06-30 09:59:23 51°38.927 2°32.225 94.4 1.3 185 40.8
2010-06-30 10:00:23 51°38.903 2°32.227 108.2 1.7 177 40.1
2010-06-30 10:01:24 51°38.851 2°32.259 133 4.9 153 40
2010-06-30 10:02:24 51°38.732 2°32.392 133.3 10.7 144 41.5
2010-06-30 10:03:24 51°38.585 2°32.571 133 11.3 142 41.6
2010-06-30 10:04:24 51°38.436 2°32.756 133.5 11.3 142 39.6
2010-06-30 10:05:24 51°38.286 2°32.943 133.5 12 141 41.6
2010-06-30 10:06:23 51°38.124 2°33.151 133.5 12.8 141 40.7
2010-06-30 10:07:24 51°37.957 2°33.372 132.5 12.7 140 38.7
2010-06-30 10:08:23 51°37.788 2°33.599 133.2 13.6 141 36.9
2010-06-30 10:09:24 51°37.611 2°33.836 133.6 13.6 141 31.5
2010-06-30 10:10:24 51°37.436 2°34.065 133.9 13.6 142 27.7
2010-06-30 10:11:23 51°37.266 2°34.285 133.7 13.2 142 14.2
2010-06-30 10:12:24 51°37.067 2°34.452 157.4 14 167 21.8
2010-06-30 10:13:23 51°36.832 2°34.496 168.4 14.7 175 23.9
2010-06-30 10:14:23 51°36.591 2°34.529 168.6 14.4 176 23.1
2010-06-30 10:15:23 51°36.351 2°34.559 168.5 14.5 174 22
2010-06-30 10:16:23 51°36.11 2°34.593 168.6 14.5 176 24.8
2010-06-30 10:17:23 51°35.867 2°34.626 169 14.7 175 27.8
2010-06-30 10:18:24 51°35.62 2°34.658 169.3 14.7 176 34.3
2010-06-30 10:19:24 51°35.377 2°34.688 169.9 14.7 176 35.9
2010-06-30 10:20:23 51°35.138 2°34.721 165.9 14.5 171 35.4
2010-06-30 10:21:24 51°34.901 2°34.811 158.4 14.2 166 35.8
2010-06-30 10:22:23 51°34.674 2°34.904 158.9 14.3 166 33.3
2010-06-30 10:23:23 51°34.443 2°34.999 158.2 14.2 166 31.2
2010-06-30 10:24:23 51°34.216 2°35.11 154.5 14.2 162 25.1
2010-06-30 10:25:24 51°33.987 2°35.23 154.6 14.3 164 23.3
2010-06-30 10:26:23 51°33.765 2°35.346 155.3 14.2 162 20.9
2010-06-30 10:27:24 51°33.546 2°35.493 148.5 14.1 157 24.4
2010-06-30 10:28:24 51°33.328 2°35.645 149.2 14.3 156 28.6
2010-06-30 10:29:23 51°33.112 2°35.794 148.7 14.4 158 35.7
2010-06-30 10:30:24 51°32.888 2°35.949 149.5 14.3 156 38.5
2010-06-30 10:31:23 51°32.672 2°36.097 149.9 14.5 161 38.8
2010-06-30 10:32:23 51°32.428 2°36.143 174.7 15.1 182 38.5
2010-06-30 10:33:23 51°32.18 2°36.116 182.5 15.1 188 37.8
2010-06-30 10:34:24 51°31.93 2°36.036 192.6 15.2 196 38.1
2010-06-30 10:35:23 51°31.691 2°35.921 193.1 15.3 197 38.3
2010-06-30 10:36:23 51°31.449 2°35.809 192.7 15.2 196 37.3
2010-06-30 10:37:24 51°31.202 2°35.698 191.9 15.1 195 36.3
2010-06-30 10:38:23 51°30.964 2°35.579 195.3 15.2 198 37
2010-06-30 10:39:23 51°30.723 2°35.456 194.6 15.1 197 37.3
2010-06-30 10:40:23 51°30.482 2°35.338 194.6 15.2 197 36.8
2010-06-30 10:41:24 51°30.236 2°35.219 194.6 15.2 197 37.3
2010-06-30 10:42:23 51°30 2°35.098 195.4 15.2 199 39
2010-06-30 10:43:23 51°29.764 2°34.946 199.5 15.3 202 37.8
2010-06-30 10:44:23 51°29.528 2°34.794 198.6 15.3 202 38.6
2010-06-30 10:45:23 51°29.292 2°34.643 198.6 15.3 201 35.8
2010-06-30 10:46:23 51°29.056 2°34.495 198.5 15.2 201 37.7
2010-06-30 10:47:24 51°28.817 2°34.341 198.5 15.1 202 38.9
2010-06-30 10:48:24 51°28.584 2°34.191 198.2 15.1 202 36.2
2010-06-30 10:49:23 51°28.354 2°34.041 198.5 15.1 202 39.1
2010-06-30 10:50:24 51°28.116 2°33.887 198.3 15.1 201 39.4
2010-06-30 10:51:23 51°27.886 2°33.739 198.9 15.1 202 37.3
2010-06-30 10:52:23 51°27.653 2°33.587 198 15.2 202 32.4
2010-06-30 10:53:23 51°27.417 2°33.434 197.3 15.3 202 33.5
2010-06-30 10:54:23 51°27.183 2°33.278 198.2 15.2 203 32.5
2010-06-30 10:55:24 51°26.945 2°33.119 198.3 15.4 203 33.6
2010-06-30 10:56:24 51°26.71 2°32.964 198.5 15.3 203 33
2010-06-30 10:57:24 51°26.475 2°32.808 198.5 15.3 203 32.7
2010-06-30 10:58:23 51°26.244 2°32.656 198.8 15.3 203 32.5
2010-06-30 10:59:23 51°26.01 2°32.504 197.9 15.2 203 33.2
2010-06-30 11:00:23 51°25.777 2°32.347 198.6 15.1 203 32.1
2010-06-30 11:01:23 51°25.544 2°32.192 198.2 15.2 202 32.7
2010-06-30 11:02:23 51°25.311 2°32.039 198.5 15.2 202 33.3
2010-06-30 11:03:24 51°25.076 2°31.892 198.2 14.7 201 33
2010-06-30 11:04:24 51°24.914 2°31.764 220 7.3 221 33.3
2010-06-30 11:05:23 51°24.864 2°31.655 249.9 3.9 242 30
2010-06-30 11:06:24 51°24.845 2°31.583 277.1 2.1 250 34.3
2010-06-30 11:07:23 51°24.837 2°31.543 302.7 1.4 255 33
2010-06-30 11:08:23 51°24.831 2°31.51 317.7 1.1 250 33.1
2010-06-30 11:09:23 51°24.825 2°31.486 322.7 1 237 34
2010-06-30 11:10:23 51°24.813 2°31.466 329.6 1 221 34.2
2010-06-30 11:11:23 51°24.8 2°31.45 342.2 1 218 34.3
2010-06-30 11:12:24 51°24.787 2°31.435 352.7 1 218 34.5
2010-06-30 11:13:23 51°24.775 2°31.419 -999 0.9 220 34.3
2010-06-30 11:14:23 51°24.765 2°31.402 4.6 0.9 225 34.5
2010-06-30 11:15:23 51°24.755 2°31.386 4.6 0.9 229 34.6
2010-06-30 11:16:23 51°24.747 2°31.369 1.1 0.8 234 34.9
2010-06-30 11:17:23 51°24.739 2°31.352 356.1 0.7 234 35
2010-06-30 11:18:23 51°24.732 2°31.334 351.8 0.8 238 35.1
2010-06-30 11:19:24 51°24.725 2°31.316 345.8 0.8 240 35.3
2010-06-30 11:20:23 51°24.718 2°31.298 338.1 0.8 242 34.9
2010-06-30 11:21:23 51°24.711 2°31.278 331.9 0.9 233 35.3
2010-06-30 11:22:23 51°24.702 2°31.257 325.5 0.9 234 34.9
2010-06-30 11:23:23 51°24.693 2°31.239 320.9 0.8 228 34.5
2010-06-30 11:24:23 51°24.683 2°31.223 318.5 0.8 227 34.6
2010-06-30 11:25:23 51°24.673 2°31.208 323 0.9 222 34.1
2010-06-30 11:26:23 51°24.661 2°31.193 330.6 0.9 216 34
2010-06-30 11:27:23 51°24.65 2°31.179 338.4 0.9 219 34.1
2010-06-30 11:28:24 51°24.638 2°31.165 346.4 0.9 215 34.5
2010-06-30 11:29:23 51°24.627 2°31.151 354.9 0.8 214 34.5
2010-06-30 11:30:23 51°24.615 2°31.138 0.9 0.9 216 34.7
2010-06-30 11:31:23 51°24.603 2°31.124 4.1 0.8 215 34.8
2010-06-30 11:32:23 51°24.593 2°31.109 5.6 0.8 220 34.9
2010-06-30 11:33:23 51°24.582 2°31.097 4.1 0.7 225 34.6
2010-06-30 11:34:23 51°24.574 2°31.084 1.5 0.7 226 34.5
2010-06-30 11:35:24 51°24.567 2°31.072 357.2 0.7 227 34.3
2010-06-30 11:36:23 51°24.559 2°31.058 352.1 0.7 230 34.3
2010-06-30 11:37:23 51°24.552 2°31.044 343.9 0.7 224 34.3
2010-06-30 11:38:23 51°24.544 2°31.031 338.6 0.7 226 34.5
2010-06-30 11:39:23 51°24.569 2°31.017 12.3 4.5 12 34.8
2010-06-30 11:40:23 51°24.621 2°31.143 64.3 7.2 64 34.6
2010-06-30 11:41:24 51°24.699 2°31.309 47.7 8 47 34.5
2010-06-30 11:42:24 51°24.789 2°31.459 49.8 6.6 51 34.1
2010-06-30 11:43:23 51°24.835 2°31.56 47.2 3.8 44 34.3
2010-06-30 11:44:24 51°24.87 2°31.629 67.7 3 74 32.1
2010-06-30 11:45:23 51°24.894 2°31.685 46.5 2.5 48 34.1
2010-06-30 11:46:23 51°24.904 2°31.733 66.5 1.5 78 34.1
2010-06-30 11:47:23 51°24.9 2°31.739 67.3 0.4 191 34
2010-06-30 11:48:23 51°24.892 2°31.728 74.2 1.2 235 34
2010-06-30 11:49:27 51°24.876 2°31.681 76.1 2.3 246 -999
2010-06-30 11:50:27 51°24.861 2°31.621 79.7 2.2 247 32.7
2010-06-30 11:51:26 51°24.848 2°31.58 82 1.1 238 34.7
2010-06-30 11:52:25 51°24.845 2°31.622 75.2 4.5 73 33.8
2010-06-30 11:53:25 51°24.88 2°31.741 57.3 3.8 57 34
2010-06-30 11:54:24 51°24.911 2°31.803 52 2.5 52 33.8
2010-06-30 11:55:23 51°24.929 2°31.847 59.7 1.5 63 29.5
2010-06-30 11:56:23 51°24.938 2°31.871 50.2 0.8 55 33.6
2010-06-30 11:57:23 51°24.945 2°31.886 46.2 0.6 49 32.7
2010-06-30 11:58:23 51°24.951 2°31.895 39.8 0.5 27 31.2
2010-06-30 11:59:23 51°24.958 2°31.899 32.2 0.4 11 29.3
2010-06-30 12:00:23 51°24.968 2°31.907 48.1 1.1 52 33.4
2010-06-30 12:01:23 51°24.966 2°31.948 101.9 2.2 125 32.7
2010-06-30 12:02:23 51°24.928 2°31.982 152 2.7 168 32.7
2010-06-30 12:03:23 51°24.858 2°31.985 178.3 6.3 184 31.5
2010-06-30 12:04:23 51°24.757 2°31.894 223.2 8 222 32.9
2010-06-30 12:05:23 51°24.666 2°31.797 217.7 5.4 221 33
2010-06-30 12:06:23 51°24.631 2°31.695 268.5 3.3 255 34.6
2010-06-30 12:07:23 51°24.619 2°31.626 267.8 2.1 256 34
2010-06-30 12:08:23 51°24.611 2°31.589 275.2 1 246 33.1
2010-06-30 12:09:23 51°24.605 2°31.571 288.5 0.6 243 32.3
2010-06-30 12:10:23 51°24.599 2°31.56 308 0.4 222 33.1
2010-06-30 12:11:23 51°24.592 2°31.555 326.6 0.6 206 33.8
2010-06-30 12:12:23 51°24.583 2°31.551 339.8 0.7 192 34.8
2010-06-30 12:13:24 51°24.571 2°31.547 348.6 0.7 192 35.3
2010-06-30 12:14:23 51°24.56 2°31.542 357.8 0.7 195 33.8
2010-06-30 12:15:23 51°24.547 2°31.537 4.9 0.7 194 30.9
2010-06-30 12:16:23 51°24.538 2°31.533 9.8 0.6 199 32.7
2010-06-30 12:17:23 51°24.529 2°31.527 7.9 0.5 197 33.1
2010-06-30 12:18:23 51°24.522 2°31.524 4.5 0.4 192 33.4
2010-06-30 12:19:23 51°24.517 2°31.521 358.6 0.3 198 34
2010-06-30 12:20:23 51°24.51 2°31.517 353.2 0.4 201 34.2
2010-06-30 12:21:23 51°24.507 2°31.515 348.7 0.3 210 34.1
2010-06-30 12:22:23 51°24.503 2°31.511 342.4 0.3 201 32
2010-06-30 12:23:23 51°24.496 2°31.506 336.6 0.3 186 31.9
2010-06-30 12:24:23 51°24.491 2°31.505 333.5 0.3 182 31.4
2010-06-30 12:25:23 51°24.485 2°31.506 333.7 0.4 170 30.9
2010-06-30 12:26:23 51°24.479 2°31.509 337.9 0.4 165 31
2010-06-30 12:27:23 51°24.472 2°31.512 343.6 0.5 170 30.2
2010-06-30 12:28:23 51°24.464 2°31.515 349.1 0.5 166 30
2010-06-30 12:29:23 51°24.457 2°31.517 352.3 0.4 165 31
2010-06-30 12:30:24 51°24.451 2°31.52 354.5 0.4 167 31.7
2010-06-30 12:31:24 51°24.445 2°31.523 354.3 0.4 159 32.1
2010-06-30 12:32:24 51°24.441 2°31.53 356.6 0.4 155 32
2010-06-30 12:33:24 51°24.434 2°31.534 356.3 0.4 156 31.9
2010-06-30 12:34:23 51°24.428 2°31.539 354.1 0.4 146 32.2
2010-06-30 12:35:23 51°24.423 2°31.544 353.9 0.4 146 31.7
2010-06-30 12:36:23 51°24.419 2°31.551 352.2 0.3 141 31.5
2010-06-30 12:37:23 51°24.415 2°31.558 351.8 0.3 138 32.5
2010-06-30 12:38:23 51°24.411 2°31.565 350.3 0.4 129 34.2
2010-06-30 12:39:23 51°24.407 2°31.572 349.7 0.4 120 35
2010-06-30 12:40:23 51°24.404 2°31.581 348.7 0.4 126 34.7
2010-06-30 12:41:23 51°24.401 2°31.59 347.8 0.4 118 34.7
2010-06-30 12:42:23 51°24.396 2°31.597 346.8 0.4 113 34.5
2010-06-30 12:43:23 51°24.393 2°31.606 345.3 0.3 123 34.7
2010-06-30 12:44:23 51°24.391 2°31.618 346.8 0.4 115 34.6
2010-06-30 12:45:23 51°24.389 2°31.629 347.3 0.4 118 35.1
2010-06-30 12:46:23 51°24.388 2°31.644 347.7 0.5 99 35
2010-06-30 12:47:23 51°24.403 2°31.631 312.5 2.6 307 34.6
2010-06-30 12:48:23 51°24.4 2°31.544 243.2 4.4 243 32.3
2010-06-30 12:49:23 51°24.391 2°31.423 285.8 4.2 287 33.4
2010-06-30 12:50:23 51°24.419 2°31.355 312.9 2.4 320 33.4
2010-06-30 12:51:23 51°24.447 2°31.324 322.1 1.5 335 34.4
2010-06-30 12:52:23 51°24.462 2°31.32 309.8 0.7 355 34.7
2010-06-30 12:53:23 51°24.471 2°31.326 310.7 0.6 49 34.3
2010-06-30 12:54:23 51°24.476 2°31.343 326.7 0.8 74 34.7
2010-06-30 12:55:23 51°24.477 2°31.364 348 0.8 83 33
2010-06-30 12:56:24 51°24.48 2°31.384 2.2 0.7 79 31.2
2010-06-30 12:57:23 51°24.483 2°31.403 8 0.8 73 32.9
2010-06-30 12:58:23 51°24.487 2°31.423 6.4 0.8 77 35.2
2010-06-30 12:59:23 51°24.488 2°31.443 2.3 0.8 85 35.1
2010-06-30 13:00:23 51°24.488 2°31.465 3.8 0.8 93 34.9
2010-06-30 13:01:23 51°24.487 2°31.488 8.6 0.9 94 33
2010-06-30 13:02:24 51°24.486 2°31.511 14.6 0.9 99 32.7
2010-06-30 13:03:23 51°24.484 2°31.533 19.1 0.8 100 34.9
2010-06-30 13:04:23 51°24.482 2°31.554 23.5 0.8 97 34.3
2010-06-30 13:05:23 51°24.481 2°31.575 28 0.8 95 32.4
2010-06-30 13:06:23 51°24.48 2°31.596 31.6 0.8 91 32.3
2010-06-30 13:07:23 51°24.48 2°31.617 33.7 0.8 90 35.8
2010-06-30 13:08:23 51°24.48 2°31.639 35.3 0.8 89 36
2010-06-30 13:09:23 51°24.481 2°31.66 32.8 0.8 83 35.5
2010-06-30 13:10:23 51°24.483 2°31.682 28.6 0.9 81 35.7
2010-06-30 13:11:23 51°24.484 2°31.706 22.3 0.9 88 35.3
2010-06-30 13:12:23 51°24.485 2°31.73 14.3 0.9 88 34.7
2010-06-30 13:13:23 51°24.486 2°31.757 9.5 1 91 33.6
2010-06-30 13:14:23 51°24.485 2°31.784 11.4 1.1 93 33.1
2010-06-30 13:15:23 51°24.485 2°31.811 17.4 1 92 32.3
2010-06-30 13:16:23 51°24.487 2°31.839 23.5 1.2 70 31.2
2010-06-30 13:17:23 51°24.517 2°31.886 29.5 4.6 36 31.9
2010-06-30 13:18:24 51°24.614 2°31.953 11.6 7.2 15 32.9
2010-06-30 13:19:23 51°24.736 2°32.001 10.8 8 14 34.1
2010-06-30 13:20:23 51°24.857 2°32.051 5.2 6.1 9 32
2010-06-30 13:21:23 51°24.933 2°32.054 342 3.6 357 34.2
2010-06-30 13:22:23 51°24.984 2°32.051 333.6 2.7 358 32.1
2010-06-30 13:23:23 51°25.023 2°32.053 331.1 2.1 6 34.2
2010-06-30 13:24:23 51°25.053 2°32.061 327.2 1.7 13 32.3
2010-06-30 13:25:23 51°25.078 2°32.07 313.1 1.5 7 34.6
2010-06-30 13:26:23 51°25.1 2°32.068 293.8 1.3 349 34.1
2010-06-30 13:27:24 51°25.117 2°32.057 273.1 0.9 333 34.5
2010-06-30 13:28:23 51°25.128 2°32.055 262.1 0.6 9 34.5
2010-06-30 13:29:23 51°25.131 2°32.052 234.2 0.5 213 34.7
2010-06-30 13:30:23 51°25.106 2°32.057 187.3 2.4 167 34.7
2010-06-30 13:31:23 51°25.058 2°32.058 202.3 3.2 187 32.7
2010-06-30 13:32:23 51°25.009 2°32.043 209.2 2.4 194 35.1
2010-06-30 13:33:23 51°24.988 2°32.043 219.8 0.7 106 33.2
2010-06-30 13:34:24 51°24.99 2°32.07 218.5 1.2 76 32.2
2010-06-30 13:35:23 51°24.997 2°32.104 201.1 1.5 69 34.6
2010-06-30 13:36:23 51°25.01 2°32.143 176.6 1.7 62 32.8
2010-06-30 13:37:23 51°25.022 2°32.182 161.3 1.6 60 32.8
2010-06-30 13:38:23 51°25.035 2°32.221 152.1 1.7 60 34.6
2010-06-30 13:39:23 51°25.049 2°32.261 149.3 1.7 61 33.9
2010-06-30 13:40:23 51°25.063 2°32.3 150.9 1.7 59 30.4
2010-06-30 13:41:23 51°25.077 2°32.341 154.1 1.8 62 30
2010-06-30 13:42:23 51°25.091 2°32.382 155.7 1.8 60 33.7
2010-06-30 13:43:23 51°25.106 2°32.423 156.2 1.8 59 32.9
2010-06-30 13:44:23 51°25.121 2°32.466 155.4 1.9 59 30.8
2010-06-30 13:45:23 51°25.137 2°32.508 155.4 1.9 59 27.5
2010-06-30 13:46:23 51°25.154 2°32.551 154.8 2 58 25.2
2010-06-30 13:47:23 51°25.171 2°32.595 152.5 1.9 58 30.7
2010-06-30 13:48:23 51°25.185 2°32.642 151 2.4 94 29.3
2010-06-30 13:49:23 51°25.129 2°32.735 153.2 7.6 142 26.4
2010-06-30 13:50:23 51°24.988 2°32.845 169.2 11.1 161 19.5
2010-06-30 13:51:23 51°24.791 2°32.936 170.5 12.9 164 20.7
2010-06-30 13:52:23 51°24.583 2°33.03 170.2 13 164 25.8
2010-06-30 13:53:23 51°24.374 2°33.127 170 13.2 163 27
2010-06-30 13:54:23 51°24.164 2°33.223 169.7 13 165 30.5
2010-06-30 13:55:23 51°23.955 2°33.317 169.9 13 164 32.9
2010-06-30 13:56:23 51°23.745 2°33.359 190.3 12.4 192 33.3
2010-06-30 13:57:23 51°23.553 2°33.241 211.3 12.4 210 33.8
2010-06-30 13:58:23 51°23.381 2°33.061 216.7 12.3 214 33
2010-06-30 13:59:23 51°23.21 2°32.876 217 12.4 215 33.2
2010-06-30 14:00:23 51°23.039 2°32.693 217.4 12.3 215 34.1
2010-06-30 14:01:23 51°22.871 2°32.509 216.9 12.1 213 32.8
2010-06-30 14:02:23 51°22.705 2°32.33 216.9 12 213 33.9
2010-06-30 14:03:23 51°22.519 2°32.207 199.5 12.4 192 33.5
2010-06-30 14:04:23 51°22.316 2°32.135 197.5 12.5 192 32.7
2010-06-30 14:05:24 51°22.107 2°32.083 190.4 12.6 185 33.5
2010-06-30 14:06:23 51°21.898 2°32.076 186.4 12.8 180 32.7
2010-06-30 14:07:23 51°21.685 2°32.122 174.6 13.2 167 26.5
2010-06-30 14:08:23 51°21.473 2°32.2 166.9 13.1 160 20.7
2010-06-30 14:09:23 51°21.292 2°32.404 137.7 13.9 129 23.3
2010-06-30 14:10:23 51°21.188 2°32.739 111.6 14.3 111 29.4
2010-06-30 14:11:23 51°21.123 2°33.105 110.9 14.4 111 32.1
2010-06-30 14:12:23 51°21.037 2°33.461 119.6 14.3 117 33.9
2010-06-30 14:13:23 51°20.928 2°33.799 120.9 14.4 121 33.3
2010-06-30 14:14:23 51°20.82 2°34.14 123.2 14.3 119 33.1
2010-06-30 14:15:23 51°20.718 2°34.488 120.2 14.4 116 34.7
2010-06-30 14:16:23 51°20.618 2°34.831 120.7 14.3 113 32.8
2010-06-30 14:17:23 51°20.518 2°35.176 120.8 14.4 111 28.7
2010-06-30 14:18:23 51°20.418 2°35.522 121.3 14.4 113 23.9
2010-06-30 14:19:23 51°20.317 2°35.871 121.8 14.7 113 20.5
2010-06-30 14:20:23 51°20.211 2°36.219 121.3 14.5 116 22.8
2010-06-30 14:21:24 51°20.105 2°36.573 121.1 14.5 118 24.3
2010-06-30 14:22:23 51°20.003 2°36.917 120.6 14.5 116 24.4
2010-06-30 14:23:23 51°19.898 2°37.264 122.3 14.6 115 23.9
2010-06-30 14:24:23 51°19.796 2°37.614 120.6 14.5 116 24.6
2010-06-30 14:25:23 51°19.69 2°37.963 121.6 14.5 114 23.9
2010-06-30 14:26:23 51°19.584 2°38.308 122.3 14.6 115 25.7
2010-06-30 14:27:23 51°19.477 2°38.653 121.7 14.6 115 28.4
2010-06-30 14:28:23 51°19.373 2°39.005 120.7 14.4 114 31.2
2010-06-30 14:29:23 51°19.271 2°39.348 121.4 14.2 115 31.1
2010-06-30 14:30:23 51°19.171 2°39.689 121.8 14.3 115 28
2010-06-30 14:31:23 51°19.074 2°40.032 121.3 14.3 113 25.2
2010-06-30 14:32:23 51°18.973 2°40.376 121.1 14.4 115 23.1
2010-06-30 14:33:23 51°18.868 2°40.723 124.1 14.6 118 17.3
2010-06-30 14:34:24 51°18.752 2°41.07 124.7 14.8 119 18.8
2010-06-30 14:35:23 51°18.633 2°41.399 123.9 14.4 122 21.7
2010-06-30 14:36:23 51°18.515 2°41.73 124.1 14.3 121 25
2010-06-30 14:37:23 51°18.373 2°42.024 143.1 13.6 140 25.9
2010-06-30 14:38:23 51°18.205 2°42.267 145.3 13.7 139 26.5
2010-06-30 14:39:24 51°18.03 2°42.494 148.5 13.3 143 27
2010-06-30 14:40:23 51°17.866 2°42.731 144.4 13.7 134 25.8
2010-06-30 14:41:24 51°17.709 2°43.005 134.9 14 124 17.7
2010-06-30 14:42:24 51°17.575 2°43.309 131.5 14.3 124 14.5
2010-06-30 14:43:24 51°17.436 2°43.62 131.5 14.3 126 18.2
2010-06-30 14:44:23 51°17.297 2°43.92 131.1 14.2 127 18.8
2010-06-30 14:45:23 51°17.154 2°44.219 134.7 13.9 132 18.2
2010-06-30 14:46:23 51°17.011 2°44.509 132.5 13.8 126 18.3
2010-06-30 14:47:24 51°16.872 2°44.81 132.6 13.8 126 14.5
2010-06-30 14:48:23 51°16.747 2°45.11 127.9 14 125 14.2
2010-06-30 14:49:23 51°16.62 2°45.418 130.8 13.7 125 13.7
2010-06-30 14:50:23 51°16.484 2°45.711 132.8 13.7 125 13.4
2010-06-30 14:51:23 51°16.349 2°46.001 131.1 13.8 123 12.5
2010-06-30 14:52:23 51°16.222 2°46.306 127.2 14 123 13.3
2010-06-30 14:53:23 51°16.111 2°46.64 120.4 14.4 116 15.4
2010-06-30 14:54:24 51°16.01 2°47.001 118.8 14.7 116 18.5
2010-06-30 14:55:23 51°15.921 2°47.358 113.4 14.8 107 18.8
2010-06-30 14:56:24 51°15.855 2°47.749 107.4 15 101 17.8
2010-06-30 14:57:24 51°15.825 2°48.141 99 14.9 94 16.3
2010-06-30 14:58:24 51°15.803 2°48.537 99.8 15 95 14.5
2010-06-30 14:59:24 51°15.779 2°48.931 99.4 14.7 96 13.6
2010-06-30 15:00:24 51°15.754 2°49.316 99.3 14.5 95 13.4
2010-06-30 15:01:24 51°15.732 2°49.703 100.2 14.5 94 14.4
2010-06-30 15:02:24 51°15.708 2°50.092 100.4 15.1 94 15.5
2010-06-30 15:03:26 51°15.682 2°50.505 100.5 15.2 96 15.3
2010-06-30 15:04:27 51°15.659 2°50.912 99.3 15.2 94 -999
2010-06-30 15:05:27 51°15.64 2°51.312 100.3 14.6 94 -999
2010-06-30 15:06:27 51°15.629 2°51.6 100.7 8.9 92 -999
2010-06-30 15:07:27 51°15.629 2°51.813 100.6 7.5 90 -999
2010-06-30 15:08:27 51°15.631 2°52.002 100.2 7 88 -999
2010-06-30 15:09:27 51°15.635 2°52.185 101.3 6.8 89 -999
2010-06-30 15:10:27 51°15.637 2°52.364 100.4 6.7 88 -999
2010-06-30 15:11:27 51°15.639 2°52.539 100.7 6.6 89 -999
2010-06-30 15:12:27 51°15.641 2°52.715 100.1 6.6 88 -999
2010-06-30 15:13:27 51°15.644 2°52.889 100.1 6.6 88 -999
2010-06-30 15:14:27 51°15.647 2°53.064 99.9 6.7 88 -999
2010-06-30 15:15:27 51°15.651 2°53.239 99.5 6.6 88 -999
2010-06-30 15:16:27 51°15.655 2°53.414 100.8 6.6 88 -999
2010-06-30 15:17:27 51°15.657 2°53.587 101.8 6.5 89 -999
2010-06-30 15:18:27 51°15.657 2°53.749 99.2 5.8 87 -999
2010-06-30 15:19:27 51°15.66 2°53.896 100.8 5.4 89 -999
2010-06-30 15:20:27 51°15.643 2°54.093 125.1 10.8 113 -999
2010-06-30 15:21:27 51°15.5 2°54.288 156.8 12.2 150 -999
2010-06-30 15:22:27 51°15.318 2°54.439 163.1 12.1 156 -999
2010-06-30 15:23:27 51°15.134 2°54.595 156 12.8 152 -999
2010-06-30 15:24:27 51°14.947 2°54.759 161 12.8 153 -999
2010-06-30 15:25:27 51°14.753 2°54.897 162.4 12.8 156 -999
2010-06-30 15:26:27 51°14.558 2°55.04 162.8 12.7 159 -999
2010-06-30 15:27:27 51°14.369 2°55.195 147.7 13 147 -999
2010-06-30 15:28:27 51°14.224 2°55.338 153.7 8.4 153 -999
2010-06-30 15:29:27 51°14.111 2°55.426 156.6 7.1 156 -999
2010-06-30 15:30:27 51°14.005 2°55.505 156.6 7 155 -999
2010-06-30 15:31:27 51°13.898 2°55.58 158.1 7 158 -999
2010-06-30 15:32:27 51°13.804 2°55.647 148.5 5.2 151 -999
2010-06-30 15:33:27 51°13.746 2°55.732 128.7 4.7 129 -999
2010-06-30 15:34:27 51°13.702 2°55.829 127.1 4.1 125 -999
2010-06-30 15:35:27 51°13.673 2°55.911 106.6 3.1 108 -999
2010-06-30 15:36:27 51°13.664 2°55.956 127.5 0.6 113 -999